Flight Track Log - Related Links

Times and Time Zones

All times are in EST time to prevent confusion due to time zone crossing. See the N75AW flight status page for this flight to view local times or setup timezone preferences in your user account.

Time Position Orientation Groundspeed Altitude Reporting Facility
EST Latitude Longitude Course Direction KTS MPH feet Rate Location/Type
Sun 10:52:26 AM 26.2406 -81.6950 354° North 145 167 5,900  Level Miami Center
Sun 10:53:26 AM 26.2753 -81.7194 328° Northwest 111 128 7,300 1,550 Climbing Miami Center
Sun 10:54:26 AM 26.3164 -81.7328 344° North 137 158 9,000 1,650 Climbing Miami Center
Sun 10:55:26 AM 26.3558 -81.7414 349° North 148 170 10,600 1,550 Climbing Miami Center
Sun 10:56:00 AM 26.5569 -81.7934 354° North  Level Estimated
Sun 10:56:26 AM 26.4000 -81.7361 North 143 165 12,100  Level Miami Center
Sun 10:57:26 AM 26.4525 -81.7269 North 157 181 13,900 1,650 Climbing Miami Center
Sun 10:58:26 AM 26.5006 -81.7194 North 171 197 15,400 1,550 Climbing Miami Center
Sun 10:59:26 AM 26.5511 -81.7100 North 177 204 17,000 1,400 Climbing Miami Center
Sun 11:00:26 AM 26.5994 -81.7028 North 177 204 18,200 1,250 Climbing Miami Center
Sun 11:01:26 AM 26.6497 -81.6931 10° North 182 209 19,500 1,300 Climbing Miami Center
Sun 11:02:26 AM 26.7000 -81.6858 North 182 209 20,800 1,200 Climbing Miami Center
Sun 11:03:26 AM 26.7506 -81.6764 North 182 209 21,900 1,000 Climbing Miami Center
Sun 11:04:26 AM 26.8008 -81.6692 North 182 209 22,800 850 Climbing Miami Center
Sun 11:05:26 AM 26.8556 -81.6550 13° North 182 209 23,600 900 Climbing Miami Center
Sun 11:06:26 AM 26.9125 -81.6436 10° North 193 222 24,600 800 Climbing Miami Center
Sun 11:07:26 AM 26.9669 -81.6364 North 199 229 25,200 300 Climbing Miami Center
Sun 11:08:26 AM 27.0236 -81.6225 12° North 217 250 25,200  Level Miami Center
Sun 11:09:26 AM 27.1036 -81.6069 10° North 250 288 25,200  Level Miami Center
Sun 11:10:26 AM 27.1792 -81.5939 North 265 305 25,200  Level Miami Center
Sun 11:11:26 AM 27.2314 -81.5283 48° Northeast 259 298 25,200  Level Miami Center
Sun 11:12:26 AM 27.2650 -81.4525 63° Northeast 268 308 25,200  Level Miami Center
Sun 11:13:26 AM 27.3314 -81.3992 36° Northeast 276 318 25,200  Level Miami Center
Sun 11:14:26 AM 27.4103 -81.3531 27° Northeast 284 327 25,200  Level Miami Center
Sun 11:15:26 AM 27.4803 -81.3114 28° Northeast 284 327 25,200  Level Miami Center
Sun 11:16:26 AM 27.5594 -81.3144 358° North 276 318 25,200  Level Miami Center
Sun 11:17:26 AM 27.6367 -81.3222 355° North 276 318 25,200  Level Miami Center
Sun 11:18:26 AM 27.7136 -81.3228 360° North 276 318 25,200  Level Miami Center
Sun 11:19:26 AM 27.7908 -81.3258 358° North 271 312 25,200  Level Miami Center
Sun 11:20:26 AM 27.8681 -81.3242 North 271 312 25,200  Level Miami Center
Sun 11:21:26 AM 27.9453 -81.3247 360° North 271 312 25,200  Level Miami Center
Sun 11:22:26 AM 28.0142 -81.3275 358° North 271 312 25,200  Level Miami Center
Sun 11:23:26 AM 28.0892 -81.3281 360° North 271 312 25,200  Level Miami Center
Sun 11:24:26 AM 28.1747 -81.3314 358° North 271 312 25,200  Level Miami Center
Sun 11:26:45 AM 28.3556 -81.3381 358° North 276 318 25,200  Level Jacksonville Center
Sun 11:27:45 AM 28.4306 -81.3464 354° North 276 318 25,200  Level Jacksonville Center
Sun 11:28:45 AM 28.5058 -81.3594 351° North 276 318 25,200  Level Jacksonville Center
Sun 11:29:45 AM 28.5833 -81.3678 355° North 276 318 25,200  Level Jacksonville Center
Sun 11:30:45 AM 28.6606 -81.3783 353° North 276 318 25,200  Level Jacksonville Center
Sun 11:31:45 AM 28.7381 -81.3892 353° North 276 318 25,200  Level Jacksonville Center
Sun 11:32:45 AM 28.8133 -81.3997 353° North 276 318 25,200  Level Jacksonville Center
Sun 11:33:45 AM 28.8906 -81.4106 353° North 276 318 25,200  Level Jacksonville Center
Sun 11:34:45 AM 28.9700 -81.4211 353° North 276 318 25,200  Level Jacksonville Center
Sun 11:35:45 AM 29.0472 -81.4319 353° North 276 318 25,200  Level Jacksonville Center
Sun 11:36:45 AM 29.1247 -81.4403 355° North 276 318 25,200  Level Jacksonville Center
Sun 11:37:45 AM 29.2000 -81.4511 353° North 276 318 25,200  Level Jacksonville Center
Sun 11:38:45 AM 29.2689 -81.4594 354° North 276 318 25,200  Level Jacksonville Center
Sun 11:39:45 AM 29.3464 -81.4703 353° North 276 318 25,200  Level Jacksonville Center
Sun 11:40:45 AM 29.4156 -81.4978 341° North 271 312 25,200  Level Jacksonville Center
Sun 11:41:45 AM 29.4786 -81.5328 334° Northwest 261 300 25,200  Level Jacksonville Center
Sun 11:42:45 AM 29.5539 -81.5508 348° North 256 295 25,200  Level Jacksonville Center
Sun 11:43:45 AM 29.6311 -81.5594 354° North 261 300 25,200  Level Jacksonville Center
Sun 11:44:45 AM 29.7064 -81.5678 355° North 271 312 25,200  Level Jacksonville Center
Sun 11:45:45 AM 29.7836 -81.5789 353° North 276 318 25,200  Level Jacksonville Center
Sun 11:46:45 AM 29.8589 -81.5872 355° North 276 318 25,200  Level Jacksonville Center
Sun 11:47:45 AM 29.9322 -81.5958 354° North 276 318 25,200  Level Jacksonville Center
Sun 11:48:45 AM 30.0094 -81.6069 353° North 276 318 25,200  Level Jacksonville Center
Sun 11:49:45 AM 30.0828 -81.6156 354° North 276 318 25,200  Level Jacksonville Center
Sun 11:50:45 AM 30.1578 -81.6242 354° North 276 318 25,200  Level Jacksonville Center
Sun 11:51:45 AM 30.2331 -81.6328 354° North 276 318 25,200  Level Jacksonville Center
Sun 11:52:45 AM 30.3083 -81.6414 354° North 276 318 25,200  Level Jacksonville Center
Sun 11:53:45 AM 30.3836 -81.6500 354° North 276 318 25,200 -50 Level Jacksonville Center
Sun 11:54:45 AM 30.4589 -81.6611 353° North 276 318 25,100  Descending Jacksonville Center
Sun 11:55:45 AM 30.5322 -81.6722 353° North 276 318 25,200 50 Climbing Jacksonville Center
Sun 11:56:45 AM 30.6072 -81.6808 354° North 276 318 25,200  Level Jacksonville Center
Sun 11:57:45 AM 30.6867 -81.6919 353° North 271 312 25,200  Level Jacksonville Center
Sun 11:58:45 AM 30.7619 -81.7008 354° North 271 312 25,200  Level Jacksonville Center
Sun 11:59:45 AM 30.8353 -81.7094 354° North 271 312 25,200  Level Jacksonville Center
Sun 12:00:45 PM 30.9064 -81.7208 352° North 271 312 25,200  Level Jacksonville Center
Sun 12:01:45 PM 30.9817 -81.7294 354° North 271 312 25,200 -50 Level Jacksonville Center
Sun 12:02:45 PM 31.0547 -81.7406 353° North 266 306 25,100  Descending Jacksonville Center
Sun 12:03:45 PM 31.1300 -81.7494 354° North 261 300 25,200 50 Climbing Jacksonville Center
Sun 12:04:45 PM 31.2011 -81.7583 354° North 256 295 25,200  Level Jacksonville Center
Sun 12:05:45 PM 31.2722 -81.7697 352° North 256 295 25,200  Level Jacksonville Center
Sun 12:06:45 PM 31.3453 -81.7736 357° North 256 295 25,200  Level Jacksonville Center
Sun 12:07:45 PM 31.4183 -81.7850 352° North 256 295 25,200  Level Jacksonville Center
Sun 12:08:45 PM 31.4853 -81.7939 354° North 256 295 25,200  Level Jacksonville Center
Sun 12:09:45 PM 31.5669 -81.8050 353° North 261 300 25,200  Level Jacksonville Center
Sun 12:10:45 PM 31.6378 -81.8139 354° North 261 300 25,200  Level Jacksonville Center
Sun 12:11:45 PM 31.7028 -81.8231 353° North 261 300 25,200  Level Jacksonville Center
Sun 12:12:45 PM 31.7842 -81.8342 353° North 256 295 25,200  Level Jacksonville Center
Sun 12:13:45 PM 31.8489 -81.8433 353° North 256 295 25,200  Level Jacksonville Center
Sun 12:14:45 PM 31.9283 -81.8522 355° North 256 295 25,200  Level Jacksonville Center
Sun 12:15:45 PM 32.0017 -81.8636 352° North 256 295 25,200  Level Jacksonville Center
Sun 12:16:45 PM 32.0686 -81.8728 353° North 256 295 25,200 -39 Level Jacksonville Center
Sun 12:18:18 PM 32.1911 -81.8864 355° North 257 296 25,100  Descending Atlanta Center
Sun 12:19:18 PM 32.2603 -81.8947 354° North 257 296 25,200 50 Climbing Atlanta Center
Sun 12:20:18 PM 32.3272 -81.9028 354° North 257 296 25,200 -50 Level Atlanta Center
Sun 12:21:18 PM 32.4025 -81.9133 353° North 262 302 25,100  Descending Atlanta Center
Sun 12:22:18 PM 32.4736 -81.9239 353° North 262 302 25,200 50 Climbing Atlanta Center
Sun 12:23:18 PM 32.5489 -81.9294 356° North 262 302 25,200  Level Atlanta Center
Sun 12:24:18 PM 32.6219 -81.9400 353° North 262 302 25,200 -50 Level Atlanta Center
Sun 12:25:18 PM 32.6975 -81.9506 353° North 257 296 25,100 -50 Descending Atlanta Center
Sun 12:26:18 PM 32.7706 -81.9636 351° North 257 296 25,100 -300 Level Atlanta Center
Sun 12:27:18 PM 32.8458 -81.9719 355° North 262 302 24,500 -500 Descending Atlanta Center
Sun 12:28:18 PM 32.9253 -81.9822 354° North 274 315 24,100 -200 Descending Atlanta Center
Sun 12:29:18 PM 33.0047 -81.9903 355° North 274 315 24,100  Level Atlanta Center
Sun 12:30:18 PM 33.0781 -82.0036 351° North 274 315 24,100 -250 Level Atlanta Center
Sun 12:31:18 PM 33.1533 -82.0142 353° North 274 315 23,600 -1,250 Descending Atlanta Center
Sun 12:32:18 PM 33.2414 -82.0269 353° North 293 337 21,600 -1,700 Descending Atlanta Center
Sun 12:33:18 PM 33.3228 -82.0350 355° North 300 345 20,200 -1,100 Descending Atlanta Center
Sun 12:34:18 PM 33.4022 -82.0456 354° North 292 336 19,400 -950 Descending Atlanta Center
Sun 12:35:18 PM 33.4736 -82.0564 353° North 277 319 18,300 -1,650 Descending Atlanta Center
Sun 12:36:18 PM 33.5614 -82.0669 354° North 268 308 16,100 -2,150 Descending Atlanta Center
Sun 12:37:18 PM 33.6408 -82.0775 354° North 278 320 14,000 -1,900 Descending Atlanta Center
Sun 12:38:18 PM 33.7203 -82.0883 354° North 284 327 12,300 -1,450 Descending Atlanta Center
Sun 12:39:18 PM 33.7936 -82.0992 353° North 277 319 11,100 -600 Descending Atlanta Center
Sun 12:40:18 PM 33.8564 -82.1078 354° North 251 289 11,100  Level Atlanta Center
Sun 12:41:18 PM 33.9147 -82.1164 353° North 226 260 11,100 -550 Level Atlanta Center
Sun 12:42:18 PM 33.9733 -82.1225 355° North 211 243 10,000 -1,500 Descending Atlanta Center
Sun 12:43:18 PM 34.0319 -82.1311 353° North 211 243 8,100 -1,850 Descending Atlanta Center
Sun 12:44:18 PM 34.0947 -82.1397 354° North 211 243 6,300 -1,000 Descending Atlanta Center
Sun 12:45:18 PM 34.1469 -82.1489 352° North 211 243 6,100 -200 Descending Atlanta Center

Login

Don't have an account? Register now (free) for customized features, flight alerts, and more!